Temple, Louisiana
Current Conditions -  °F | °C
As of 7:56 AM on Wednesday 26 Nov 2014 (Local Time) from KAQV Reporting Station
Clear Clear  
Wind Chill: 44°   Ceiling: Unl
Heat Index: 47°   Visibility: 10mi
Dew Point: 38°   Wind: 6mph
Humidity: 71%   Direction: NA
Pressure: 30.17"   Gusts: NA
Location:  31.2634°N, 93.0086°W
Report Text: KAQV 261356Z AUTO VRB05KT 10SM CLR 08/03 A3017 RMK AO2 SLP217 T00830033
Loading
Personal Weather Stations






























Interactive Weather Map New forecast layout! Learn more

10-Day Weather Forecast

Advertisements
Track Severe Weather on mobile